Time;durP1;ratioP1;P1;durP2;ratioP2;P2;SDS_P1;SDS_P2;PMS_P1;PMS_P2;Temp;Humidity;BMP_temperature;BMP_pressure;BME280_temperature;BME280_humidity;BME280_pressure;Samples;Min_cycle;Max_cycle;Signal;HPM_P1;HPM_P2
2024/03/24 00:01:07;;;;;;;0.10;0.10;;;;;;;3.20;100.00;99930.91;6240035;23;20419;-77
2024/03/24 00:03:37;;;;;;;0.10;0.10;;;;;;;3.02;100.00;99908.28;6238948;23;20011;-78
2024/03/24 00:06:13;;;;;;;;;;;;;;;;;;;;;
2024/03/24 00:08:39;;;;;;;0.00;0.00;;;;;;;2.98;100.00;99907.13;6255541;22;20107;-75
2024/03/24 00:11:04;;;;;;;0.00;0.00;;;;;;;3.08;100.00;99928.16;6242725;22;20039;-74
2024/03/24 00:13:35;;;;;;;0.00;0.00;;;;;;;2.93;100.00;99910.47;6242778;22;20027;-76
2024/03/24 00:16:10;;;;;;;0.00;0.00;;;;;;;2.93;100.00;99918.56;6242950;22;20014;-75
2024/03/24 00:18:36;;;;;;;0.00;0.00;;;;;;;3.11;100.00;99941.19;6219449;22;20008;-75
2024/03/24 00:21:01;;;;;;;0.10;0.10;;;;;;;3.08;100.00;99936.25;6217159;22;20137;-77
2024/03/24 00:23:30;;;;;;;0.10;0.10;;;;;;;3.08;100.00;99938.97;6269534;22;20003;-75
2024/03/24 00:25:55;;;;;;;0.10;0.10;;;;;;;3.03;100.00;99922.63;6217541;22;20039;-76
2024/03/24 00:28:21;;;;;;;0.00;0.00;;;;;;;3.18;100.00;99949.22;6191133;22;20057;-78
2024/03/24 00:30:46;;;;;;;0.10;0.10;;;;;;;3.04;100.00;99921.56;6268451;22;20008;-76
2024/03/24 00:33:11;;;;;;;0.10;0.10;;;;;;;3.07;100.00;99926.53;6242678;22;20006;-77
2024/03/24 00:35:37;;;;;;;0.00;0.00;;;;;;;3.14;100.00;99938.06;6243719;22;20008;-77
2024/03/24 00:38:02;;;;;;;0.00;0.00;;;;;;;3.22;100.00;99934.22;6241451;22;20418;-78
2024/03/24 00:40:28;;;;;;;0.00;0.00;;;;;;;3.31;100.00;99933.66;6245555;22;20091;-78
2024/03/24 00:42:54;;;;;;;0.00;0.00;;;;;;;3.38;100.00;99936.25;6245761;22;20881;-80
2024/03/24 00:45:20;;;;;;;0.03;0.03;;;;;;;3.57;100.00;99934.31;6269625;22;20031;-77
2024/03/24 00:47:45;;;;;;;0.00;0.00;;;;;;;3.73;100.00;99923.88;6194700;22;20065;-79
2024/03/24 00:50:13;;;;;;;0.10;0.10;;;;;;;3.92;100.00;99928.13;6245835;22;20413;-80
2024/03/24 00:52:39;;;;;;;0.00;0.00;;;;;;;4.17;100.00;99930.59;6275864;22;20007;-78
2024/03/24 00:55:05;;;;;;;0.00;0.00;;;;;;;4.24;100.00;99911.53;6219504;22;20008;-76
2024/03/24 00:57:30;;;;;;;0.00;0.00;;;;;;;4.54;100.00;99934.91;6222920;22;20011;-75
2024/03/24 00:59:56;;;;;;;0.00;0.00;;;;;;;4.58;100.00;99927.97;6221166;22;20091;-78
2024/03/24 01:02:22;;;;;;;0.00;0.00;;;;;;;4.72;100.00;99936.66;6243716;22;20004;-76
2024/03/24 01:04:47;;;;;;;0.00;0.00;;;;;;;4.74;99.67;99937.25;6246289;22;20429;-73
2024/03/24 01:07:13;;;;;;;0.00;0.00;;;;;;;4.52;98.81;99901.84;6241655;22;20016;-75
2024/03/24 01:09:40;;;;;;;0.00;0.00;;;;;;;4.51;98.14;99909.16;6243249;22;20054;-74
2024/03/24 01:12:07;;;;;;;0.00;0.00;;;;;;;4.23;98.35;99884.72;6270283;22;20007;-75
2024/03/24 01:14:32;;;;;;;0.10;0.10;;;;;;;4.31;99.66;99909.53;6214838;22;20368;-75
2024/03/24 01:16:58;;;;;;;0.00;0.00;;;;;;;4.28;99.81;99917.28;6245516;22;20003;-73
2024/03/24 01:19:39;;;;;;;;;;;;;;;;;;;;;
2024/03/24 01:22:05;;;;;;;0.10;0.10;;;;;;;4.46;100.00;99905.53;6270854;22;20078;-74
2024/03/24 01:25:12;;;;;;;0.00;0.00;;;;;;;4.78;98.41;99915.94;6245081;22;20529;-75
2024/03/24 01:27:37;;;;;;;0.00;0.00;;;;;;;4.84;97.34;99906.84;6148495;23;20040;-76
2024/03/24 01:30:03;;;;;;;0.00;0.00;;;;;;;4.84;96.38;99882.44;6167023;22;20303;-75
2024/03/24 01:32:29;;;;;;;0.00;0.00;;;;;;;5.13;95.90;99918.50;6220277;22;20067;-74
2024/03/24 01:34:59;;;;;;;0.00;0.00;;;;;;;5.21;95.37;99933.53;6189677;22;20035;-74
2024/03/24 01:37:27;;;;;;;0.00;0.00;;;;;;;5.19;95.13;99903.16;6271305;22;20000;-77
2024/03/24 01:39:56;;;;;;;0.00;0.00;;;;;;;5.18;94.01;99896.09;6241930;22;20015;-77
2024/03/24 01:42:23;;;;;;;0.00;0.00;;;;;;;5.34;94.00;99903.41;6244777;22;20011;-76
2024/03/24 01:45:00;;;;;;;0.00;0.00;;;;;;;5.49;93.27;99921.03;6220361;22;20008;-76
2024/03/24 01:47:26;;;;;;;0.10;0.10;;;;;;;5.45;94.13;99898.16;6269596;22;20008;-76
2024/03/24 01:49:54;;;;;;;0.00;0.00;;;;;;;5.19;94.08;99865.22;6244002;22;20137;-74
2024/03/24 01:52:22;;;;;;;0.00;0.00;;;;;;;5.37;94.30;99905.66;6243532;22;20008;-74
2024/03/24 01:54:47;;;;;;;0.00;0.00;;;;;;;5.36;94.84;99908.59;6245162;22;20011;-74
2024/03/24 01:57:13;;;;;;;0.00;0.00;;;;;;;5.37;95.75;99889.41;6242051;22;20012;-75
2024/03/24 01:59:38;;;;;;;0.00;0.00;;;;;;;5.49;95.80;99907.47;6194547;22;20015;-75
2024/03/24 02:02:04;;;;;;;0.00;0.00;;;;;;;5.54;95.03;99915.69;6216083;22;20007;-76
2024/03/24 02:04:47;;;;;;;0.00;0.00;;;;;;;5.58;94.92;99900.59;6241840;22;20457;-77
2024/03/24 02:07:17;;;;;;;0.00;0.00;;;;;;;5.59;94.87;99892.22;6266355;22;20422;-76
2024/03/24 02:09:45;;;;;;;0.00;0.00;;;;;;;5.68;94.86;99911.59;6270627;22;20427;-75
2024/03/24 02:12:10;;;;;;;0.00;0.00;;;;;;;5.81;95.70;99923.19;6218574;22;20331;-75
2024/03/24 02:14:36;;;;;;;0.00;0.00;;;;;;;5.73;95.54;99897.31;6270161;22;20006;-75
2024/03/24 02:17:04;;;;;;;0.00;0.00;;;;;;;5.72;95.24;99901.06;6192566;22;20000;-75
2024/03/24 02:19:32;;;;;;;0.00;0.00;;;;;;;5.74;95.58;99904.38;6193831;22;20038;-75
2024/03/24 02:22:00;;;;;;;0.00;0.00;;;;;;;5.65;95.50;99895.81;6270156;22;20004;-75
2024/03/24 02:24:25;;;;;;;0.00;0.00;;;;;;;5.59;94.87;99875.94;6242055;22;20075;-74
2024/03/24 02:26:56;;;;;;;0.00;0.00;;;;;;;5.74;95.97;99897.06;6242382;22;20020;-76
2024/03/24 02:29:32;;;;;;;0.00;0.00;;;;;;;5.59;95.94;99884.06;6268987;22;20031;-76
2024/03/24 02:31:57;;;;;;;0.00;0.00;;;;;;;5.52;96.09;99869.84;6197415;22;20011;-75
2024/03/24 02:34:25;;;;;;;0.00;0.00;;;;;;;5.68;96.02;99884.47;6216413;22;20754;-75
2024/03/24 02:36:50;;;;;;;0.00;0.00;;;;;;;5.77;95.37;99895.75;6269063;22;20434;-75
2024/03/24 02:39:16;;;;;;;0.00;0.00;;;;;;;5.75;95.70;99885.13;6267759;22;20011;-74
2024/03/24 02:41:43;;;;;;;0.00;0.00;;;;;;;5.67;95.18;99871.97;6242849;22;20011;-75
2024/03/24 02:44:11;;;;;;;0.10;0.10;;;;;;;5.57;95.69;99858.25;6243813;22;20057;-74
2024/03/24 02:46:45;;;;;;;0.08;0.08;;;;;;;5.56;94.99;99848.47;6243294;22;20031;-75
2024/03/24 02:49:10;;;;;;;0.00;0.00;;;;;;;5.67;94.93;99855.69;6242353;22;20010;-76
2024/03/24 02:51:35;;;;;;;0.00;0.00;;;;;;;5.71;94.71;99873.13;6219063;22;20000;-74
2024/03/24 02:54:03;;;;;;;0.00;0.00;;;;;;;5.88;94.56;99888.56;6241293;22;20057;-75
2024/03/24 02:56:31;;;;;;;0.00;0.00;;;;;;;5.89;94.30;99873.94;6217385;22;20057;-76
2024/03/24 02:58:58;;;;;;;0.00;0.00;;;;;;;5.76;94.38;99864.25;6243057;22;20412;-75
2024/03/24 03:01:24;;;;;;;0.00;0.00;;;;;;;5.88;93.64;99867.66;6241352;22;20003;-74
2024/03/24 03:03:49;;;;;;;0.10;0.10;;;;;;;5.74;93.57;99856.34;6269631;22;20019;-76
2024/03/24 03:06:15;;;;;;;0.00;0.00;;;;;;;5.56;93.35;99859.31;6216108;22;20009;-75
2024/03/24 03:08:40;;;;;;;0.00;0.00;;;;;;;5.61;93.84;99856.69;6243235;22;20015;-75
2024/03/24 03:11:06;;;;;;;0.00;0.00;;;;;;;5.55;94.66;99841.41;6241858;22;20065;-74
2024/03/24 03:13:31;;;;;;;0.00;0.00;;;;;;;5.45;94.58;99846.66;6267844;22;19999;-75
2024/03/24 03:15:57;;;;;;;0.00;0.00;;;;;;;5.63;95.02;99870.00;6271172;22;20693;-76
2024/03/24 03:18:22;;;;;;;0.10;0.10;;;;;;;5.35;95.71;99840.00;6240966;22;20757;-75
2024/03/24 03:20:48;;;;;;;0.00;0.00;;;;;;;5.24;97.28;99830.88;6244005;22;20008;-77
2024/03/24 03:23:13;;;;;;;0.10;0.10;;;;;;;5.36;97.83;99849.78;6240854;22;20700;-76
2024/03/24 03:25:42;;;;;;;0.00;0.00;;;;;;;5.21;97.69;99835.97;6242784;22;20058;-75
2024/03/24 03:28:09;;;;;;;0.00;0.00;;;;;;;5.09;99.18;99832.50;6242723;22;20000;-76
2024/03/24 03:30:35;;;;;;;0.00;0.00;;;;;;;4.98;100.00;99832.31;6242570;22;20016;-75
2024/03/24 03:33:00;;;;;;;0.10;0.10;;;;;;;5.11;100.00;99846.63;6243982;22;20027;-75
2024/03/24 03:35:26;;;;;;;0.00;0.00;;;;;;;5.10;100.00;99853.13;6241052;22;20423;-76
2024/03/24 03:37:54;;;;;;;0.00;0.00;;;;;;;5.03;100.00;99856.78;6271531;22;20003;-74
2024/03/24 03:40:20;;;;;;;0.00;0.00;;;;;;;4.96;100.00;99858.81;6268612;22;20441;-74
2024/03/24 03:42:45;;;;;;;0.00;0.00;;;;;;;4.74;100.00;99847.03;6220150;22;20011;-76
2024/03/24 03:45:12;;;;;;;0.00;0.00;;;;;;;4.76;100.00;99853.03;6242969;22;20008;-75
2024/03/24 03:47:38;;;;;;;0.10;0.10;;;;;;;4.68;100.00;99855.06;6240483;22;20094;-74
2024/03/24 03:50:04;;;;;;;0.00;0.00;;;;;;;4.62;100.00;99845.19;6240687;22;20426;-75
2024/03/24 03:52:29;;;;;;;0.00;0.00;;;;;;;4.61;100.00;99854.38;6214374;22;20016;-75
2024/03/24 03:55:00;;;;;;;0.00;0.00;;;;;;;4.54;100.00;99845.56;6270470;22;20030;-75
2024/03/24 03:57:26;;;;;;;0.00;0.00;;;;;;;4.60;100.00;99862.72;6267992;22;19996;-75
2024/03/24 03:59:52;;;;;;;0.00;0.00;;;;;;;4.63;100.00;99865.81;6241578;22;20334;-75
2024/03/24 04:02:17;;;;;;;0.00;0.00;;;;;;;4.63;100.00;99873.94;6271069;22;20003;-74
2024/03/24 04:04:44;;;;;;;0.00;0.00;;;;;;;4.57;100.00;99874.88;6268885;22;20110;-75
2024/03/24 04:07:10;;;;;;;0.00;0.00;;;;;;;4.59;100.00;99872.75;6241597;22;20008;-76
2024/03/24 04:09:35;;;;;;;0.00;0.00;;;;;;;4.50;100.00;99853.34;6240716;22;20020;-73
2024/03/24 04:12:03;;;;;;;0.00;0.00;;;;;;;4.53;100.00;99854.75;6242007;22;20422;-75
2024/03/24 04:14:28;;;;;;;0.00;0.00;;;;;;;4.50;100.00;99863.38;6193411;22;20038;-74
2024/03/24 04:16:53;;;;;;;0.00;0.00;;;;;;;4.58;100.00;99876.50;6244358;22;19999;-76
2024/03/24 04:19:19;;;;;;;0.00;0.00;;;;;;;4.54;100.00;99861.81;6246109;22;20393;-75
2024/03/24 04:21:44;;;;;;;0.00;0.00;;;;;;;4.56;100.00;99870.53;6240093;22;20007;-75
2024/03/24 04:24:10;;;;;;;0.00;0.00;;;;;;;4.60;100.00;99869.00;6268338;22;20012;-75
2024/03/24 04:26:35;;;;;;;0.10;0.10;;;;;;;4.56;100.00;99867.81;6242746;22;20003;-75
2024/03/24 04:29:03;;;;;;;0.00;0.00;;;;;;;4.43;100.00;99841.84;6244007;22;20007;-75
2024/03/24 04:31:28;;;;;;;0.00;0.00;;;;;;;4.42;100.00;99851.00;6216673;22;20990;-74
2024/03/24 04:34:01;;;;;;;0.00;0.00;;;;;;;4.39;100.00;99856.09;6243206;22;20003;-74
2024/03/24 04:36:35;;;;;;;0.00;0.00;;;;;;;4.28;100.00;99850.47;6196726;22;20482;-75
2024/03/24 04:39:12;;;;;;;0.00;0.00;;;;;;;4.36;100.00;99852.78;6243439;22;20030;-74
2024/03/24 04:42:01;;;;;;;0.00;0.00;;;;;;;4.29;100.00;99852.13;6245207;22;20004;-74
2024/03/24 04:44:26;;;;;;;0.00;0.00;;;;;;;4.08;100.00;99817.56;6244209;22;20003;-74
2024/03/24 04:46:53;;;;;;;0.10;0.10;;;;;;;4.36;100.00;99858.19;6269923;22;20382;-74
2024/03/24 04:49:22;;;;;;;0.10;0.10;;;;;;;4.25;100.00;99850.94;6243296;22;20031;-74
2024/03/24 04:51:47;;;;;;;0.00;0.00;;;;;;;4.22;100.00;99851.44;6218950;22;20007;-73
2024/03/24 04:54:13;;;;;;;0.10;0.10;;;;;;;4.23;100.00;99863.88;6267717;22;20844;-75
2024/03/24 04:56:38;;;;;;;0.00;0.00;;;;;;;4.29;100.00;99879.19;6269668;22;20000;-74
2024/03/24 04:59:04;;;;;;;0.00;0.00;;;;;;;4.27;100.00;99875.88;6192955;22;20008;-73
2024/03/24 05:01:29;;;;;;;0.10;0.10;;;;;;;4.29;100.00;99883.75;6243156;22;20078;-73
2024/03/24 05:03:54;;;;;;;0.00;0.00;;;;;;;4.26;100.00;99885.06;6245360;22;20004;-76
2024/03/24 05:06:20;;;;;;;0.00;0.00;;;;;;;4.27;100.00;99878.59;6242096;22;20018;-75
2024/03/24 05:08:46;;;;;;;0.00;0.00;;;;;;;4.19;100.00;99862.69;6270445;22;20019;-74
2024/03/24 05:11:11;;;;;;;0.10;0.10;;;;;;;4.35;100.00;99885.50;6242615;22;20000;-76
2024/03/24 05:13:38;;;;;;;0.00;0.00;;;;;;;4.33;100.00;99891.16;6218190;22;20011;-75
2024/03/24 05:16:28;;;;;;;0.00;0.00;;;;;;;4.35;100.00;99875.53;6219430;22;20079;-74
2024/03/24 05:19:03;;;;;;;0.00;0.00;;;;;;;4.44;100.00;99888.66;6218991;22;20000;-75
2024/03/24 05:21:29;;;;;;;0.00;0.00;;;;;;;4.31;100.00;99860.81;6271210;22;20326;-75
2024/03/24 05:23:55;;;;;;;0.00;0.00;;;;;;;4.22;100.00;99850.59;6269997;22;20004;-75
2024/03/24 05:26:30;;;;;;;;;;;;;;;;;;;;;
2024/03/24 05:28:57;;;;;;;0.00;0.00;;;;;;;4.45;100.00;99890.31;6246539;22;20084;-75
2024/03/24 05:31:29;;;;;;;0.00;0.00;;;;;;;4.32;100.00;99867.88;6243830;22;20422;-75
2024/03/24 05:33:55;;;;;;;0.00;0.00;;;;;;;4.40;100.00;99884.81;6270093;22;20078;-75
2024/03/24 05:36:20;;;;;;;0.00;0.00;;;;;;;4.37;100.00;99886.91;6245240;22;20709;-74
2024/03/24 05:38:46;;;;;;;0.10;0.10;;;;;;;4.47;100.00;99896.34;6240644;22;20341;-74
2024/03/24 05:41:11;;;;;;;0.00;0.00;;;;;;;4.41;100.00;99891.84;6219774;22;20808;-73
2024/03/24 05:43:37;;;;;;;0.08;0.08;;;;;;;4.48;100.00;99897.97;6217853;22;20003;-74
2024/03/24 05:46:06;;;;;;;0.00;0.00;;;;;;;4.52;100.00;99901.84;6243934;22;20031;-75
2024/03/24 05:48:34;;;;;;;0.00;0.00;;;;;;;4.44;100.00;99892.22;6269275;22;20007;-74
2024/03/24 05:51:04;;;;;;;0.00;0.00;;;;;;;4.34;100.00;99890.13;6269995;22;20007;-75
2024/03/24 05:53:34;;;;;;;0.00;0.00;;;;;;;4.36;100.00;99896.09;6220138;22;20018;-74
2024/03/24 05:56:00;;;;;;;0.00;0.00;;;;;;;4.38;100.00;99895.88;6216855;22;20632;-73
2024/03/24 05:58:27;;;;;;;0.00;0.00;;;;;;;4.40;100.00;99901.06;6244599;22;20007;-75
2024/03/24 06:00:55;;;;;;;0.00;0.00;;;;;;;4.41;100.00;99899.97;6269881;22;20018;-73
2024/03/24 06:03:20;;;;;;;0.00;0.00;;;;;;;4.40;100.00;99888.34;6192056;22;20019;-74
2024/03/24 06:05:48;;;;;;;0.10;0.10;;;;;;;4.51;100.00;99900.19;6271337;22;20011;-74
2024/03/24 06:08:14;;;;;;;0.00;0.00;;;;;;;4.49;100.00;99907.75;6242372;22;20022;-75
2024/03/24 06:10:44;;;;;;;0.00;0.00;;;;;;;4.55;100.00;99928.44;6271229;22;20007;-74
2024/03/24 06:13:10;;;;;;;0.00;0.00;;;;;;;4.44;100.00;99891.38;6238232;22;20023;-76
2024/03/24 06:15:37;;;;;;;0.00;0.00;;;;;;;4.53;100.00;99901.59;6243602;22;20053;-75
2024/03/24 06:18:06;;;;;;;0.00;0.00;;;;;;;4.25;100.00;99861.78;6269183;22;20004;-75
2024/03/24 06:20:33;;;;;;;0.00;0.00;;;;;;;4.62;100.00;99906.66;6218169;22;20035;-75
2024/03/24 06:23:01;;;;;;;0.00;0.00;;;;;;;4.48;100.00;99881.72;6241231;22;20045;-76
2024/03/24 06:25:26;;;;;;;0.00;0.00;;;;;;;4.54;100.00;99905.13;6241594;22;20042;-76
2024/03/24 06:27:52;;;;;;;0.00;0.00;;;;;;;4.60;100.00;99917.75;6244600;22;20027;-75
2024/03/24 06:30:17;;;;;;;0.00;0.00;;;;;;;4.65;100.00;99920.53;6240458;22;20109;-75
2024/03/24 06:32:43;;;;;;;0.00;0.00;;;;;;;4.66;100.00;99916.78;6245600;22;20020;-73
2024/03/24 06:35:11;;;;;;;0.00;0.00;;;;;;;4.75;100.00;99919.13;6215684;22;20090;-74
2024/03/24 06:37:39;;;;;;;0.10;0.10;;;;;;;4.70;100.00;99911.69;6219200;22;20008;-75
2024/03/24 06:40:09;;;;;;;0.00;0.00;;;;;;;4.84;100.00;99934.75;6242474;22;20471;-75
2024/03/24 06:42:43;;;;;;;0.10;0.10;;;;;;;4.75;100.00;99919.13;6271135;22;20003;-75
2024/03/24 06:45:12;;;;;;;0.00;0.00;;;;;;;4.68;100.00;99903.81;6216760;22;20015;-73
2024/03/24 06:47:41;;;;;;;0.00;0.00;;;;;;;4.81;100.00;99926.28;6268917;22;20004;-74
2024/03/24 06:50:08;;;;;;;0.00;0.00;;;;;;;4.79;100.00;99920.25;6268360;22;20010;-74
2024/03/24 06:52:35;;;;;;;0.00;0.00;;;;;;;4.73;100.00;99897.66;6266443;22;19999;-75
2024/03/24 06:55:01;;;;;;;0.00;0.00;;;;;;;4.92;100.00;99928.13;6243404;22;20098;-74
2024/03/24 06:57:40;;;;;;;0.00;0.00;;;;;;;4.94;100.00;99922.47;6266777;22;19999;-75
2024/03/24 07:00:14;;;;;;;0.00;0.00;;;;;;;4.96;100.00;99921.16;6218003;22;20086;-74
2024/03/24 07:02:41;;;;;;;0.00;0.00;;;;;;;4.88;100.00;99908.00;6241873;22;20026;-75
2024/03/24 07:05:07;;;;;;;0.00;0.00;;;;;;;5.01;100.00;99918.56;6243920;22;20053;-75
2024/03/24 07:07:35;;;;;;;0.00;0.00;;;;;;;5.05;100.00;99917.00;6239672;22;20011;-74
2024/03/24 07:10:04;;;;;;;0.00;0.00;;;;;;;5.12;100.00;99929.59;6191806;22;20039;-75
2024/03/24 07:12:30;;;;;;;0.00;0.00;;;;;;;5.10;100.00;99910.03;6240763;22;20031;-75
2024/03/24 07:14:55;;;;;;;0.00;0.00;;;;;;;5.20;100.00;99927.31;6216501;22;20004;-74
2024/03/24 07:17:24;;;;;;;0.00;0.00;;;;;;;5.24;100.00;99924.94;6190338;22;20087;-75
2024/03/24 07:19:49;;;;;;;0.03;0.03;;;;;;;5.34;100.00;99941.38;6218557;22;20453;-74
2024/03/24 07:22:19;;;;;;;0.00;0.00;;;;;;;5.46;100.00;99946.78;6243002;22;20038;-74
2024/03/24 07:24:45;;;;;;;0.00;0.00;;;;;;;5.49;100.00;99924.59;6242381;22;20007;-77
2024/03/24 07:27:10;;;;;;;0.00;0.00;;;;;;;5.62;99.50;99934.28;6241583;22;20077;-74
2024/03/24 07:29:42;;;;;;;0.00;0.00;;;;;;;5.67;97.64;99930.84;6215166;22;20030;-75
2024/03/24 07:32:07;;;;;;;0.00;0.00;;;;;;;5.81;98.63;99942.19;6243257;22;20008;-73
2024/03/24 07:34:33;;;;;;;0.00;0.00;;;;;;;5.93;96.88;99946.47;6241719;22;20061;-74
2024/03/24 07:37:08;;;;;;;0.00;0.00;;;;;;;5.84;97.21;99930.84;6241322;22;20004;-75
2024/03/24 07:39:37;;;;;;;0.10;0.10;;;;;;;5.97;96.20;99941.38;6215539;22;20022;-73
2024/03/24 07:42:02;;;;;;;0.00;0.00;;;;;;;6.14;94.76;99954.16;6191502;22;20071;-75
2024/03/24 07:44:31;;;;;;;0.00;0.00;;;;;;;6.25;95.20;99953.22;6215790;22;20422;-74
2024/03/24 07:46:56;;;;;;;0.00;0.00;;;;;;;6.52;94.68;99974.25;6242720;22;20007;-75
2024/03/24 07:49:24;;;;;;;0.00;0.00;;;;;;;6.62;94.62;99968.97;6218184;22;20429;-76
2024/03/24 07:51:49;;;;;;;0.00;0.00;;;;;;;6.84;92.79;99966.25;6219419;22;20296;-75
2024/03/24 07:54:15;;;;;;;0.00;0.00;;;;;;;7.29;92.27;99956.19;6214430;22;20022;-75
2024/03/24 07:56:40;;;;;;;0.00;0.00;;;;;;;7.61;88.48;99964.41;6271593;22;20007;-76
2024/03/24 07:59:06;;;;;;;0.03;0.03;;;;;;;7.76;86.25;99980.03;6217814;22;20035;-74
2024/03/24 08:01:31;;;;;;;0.00;0.00;;;;;;;7.72;86.54;99992.50;6243981;22;20138;-75
2024/03/24 08:03:56;;;;;;;0.00;0.00;;;;;;;7.72;86.11;99992.50;6244952;22;20035;-76
2024/03/24 08:06:22;;;;;;;0.10;0.10;;;;;;;7.96;86.89;99986.75;6240099;22;20003;-75
2024/03/24 08:08:47;;;;;;;0.00;0.00;;;;;;;8.86;82.15;99999.63;6220446;22;20019;-74
2024/03/24 08:11:20;;;;;;;0.00;0.00;;;;;;;9.95;76.35;100010.59;6218299;22;20065;-74
2024/03/24 08:13:45;;;;;;;0.00;0.00;;;;;;;11.35;69.28;99998.31;6222640;22;20004;-75
2024/03/24 08:16:11;;;;;;;0.00;0.00;;;;;;;12.52;62.57;99996.94;6270623;22;20030;-75
2024/03/24 08:18:37;;;;;;;0.00;0.00;;;;;;;12.86;59.88;100005.06;6244522;22;20015;-76
2024/03/24 08:21:05;;;;;;;0.00;0.00;;;;;;;12.82;59.84;100011.44;6245117;22;20623;-75
2024/03/24 08:23:34;;;;;;;0.00;0.00;;;;;;;14.11;57.44;100005.88;6194874;22;20014;-77
2024/03/24 08:26:00;;;;;;;0.00;0.00;;;;;;;15.08;51.98;100019.00;6223338;22;20095;-79
2024/03/24 08:28:34;;;;;;;0.00;0.00;;;;;;;16.12;49.12;99990.84;6247883;22;20039;-78
2024/03/24 08:31:06;;;;;;;0.03;0.03;;;;;;;17.16;46.22;100011.84;6248049;22;20010;-74
2024/03/24 08:33:31;;;;;;;0.00;0.00;;;;;;;17.94;41.86;100008.38;6246586;22;20051;-80
2024/03/24 08:39:32;;;;;;;0.00;0.00;;;;;;;17.41;43.21;99985.41;6273701;22;20061;-72
2024/03/24 08:42:51;;;;;;;0.00;0.00;;;;;;;18.49;41.38;100028.19;6242750;22;20008;-73
2024/03/24 08:45:20;;;;;;;0.00;0.00;;;;;;;19.15;38.58;100004.84;6239639;22;20008;-74
2024/03/24 08:47:46;;;;;;;0.10;0.10;;;;;;;19.25;37.52;99985.06;6249246;22;20008;-75
2024/03/24 08:50:12;;;;;;;0.00;0.00;;;;;;;20.01;36.79;100005.41;6241584;22;20012;-75
2024/03/24 08:52:37;;;;;;;0.00;0.00;;;;;;;19.39;37.00;100031.97;6220876;22;20006;-73
2024/03/24 08:55:06;;;;;;;0.00;0.00;;;;;;;17.56;39.96;100027.53;6245132;22;20008;-75
2024/03/24 08:57:37;;;;;;;0.00;0.00;;;;;;;17.43;41.20;100040.34;6191672;22;20015;-74
2024/03/24 09:00:04;;;;;;;0.00;0.00;;;;;;;15.40;43.41;100046.75;6192940;22;20012;-76
2024/03/24 09:02:30;;;;;;;0.00;0.00;;;;;;;13.66;47.28;100057.66;6243131;22;20003;-75
2024/03/24 09:04:58;;;;;;;0.00;0.00;;;;;;;12.56;50.78;100041.88;6239350;22;20106;-76
2024/03/24 09:07:31;;;;;;;0.00;0.00;;;;;;;13.36;49.13;100043.25;6245456;22;20014;-77
2024/03/24 09:09:57;;;;;;;0.10;0.10;;;;;;;13.11;50.83;100044.31;6224699;22;20008;-74
2024/03/24 09:12:23;;;;;;;0.10;0.10;;;;;;;13.47;49.99;100035.66;6246804;22;20012;-73
2024/03/24 09:14:49;;;;;;;0.00;0.00;;;;;;;13.08;49.93;100034.75;6265189;22;20010;-73
2024/03/24 09:17:14;;;;;;;0.10;0.10;;;;;;;13.73;49.94;100044.38;6245036;22;20468;-76
2024/03/24 09:19:42;;;;;;;0.00;0.00;;;;;;;13.58;49.92;100042.66;6245326;22;20122;-76
2024/03/24 09:22:08;;;;;;;0.00;0.00;;;;;;;15.38;47.32;100049.81;6245601;22;20015;-74
2024/03/24 09:24:36;;;;;;;0.00;0.00;;;;;;;15.14;45.53;100033.50;6241331;22;20011;-75
2024/03/24 09:27:02;;;;;;;0.00;0.00;;;;;;;13.99;47.38;100046.78;6219703;22;20532;-71
2024/03/24 09:29:28;;;;;;;0.00;0.00;;;;;;;13.05;49.73;100029.00;6246778;22;20015;-76
2024/03/24 09:31:54;;;;;;;0.00;0.00;;;;;;;12.58;51.19;100042.41;6270562;22;20000;-73
2024/03/24 09:34:22;;;;;;;0.00;0.00;;;;;;;12.20;53.29;100058.63;6248451;22;20011;-76
2024/03/24 09:36:48;;;;;;;0.00;0.00;;;;;;;12.01;52.14;100044.78;6219999;22;20023;-75
2024/03/24 09:39:13;;;;;;;0.00;0.00;;;;;;;12.28;53.46;100047.06;6266353;22;20065;-74
2024/03/24 09:41:43;;;;;;;0.00;0.00;;;;;;;13.12;51.39;100058.88;6220047;22;20094;-74
2024/03/24 09:44:15;;;;;;;0.00;0.00;;;;;;;13.00;51.14;100046.38;6271427;22;20008;-76
2024/03/24 09:46:44;;;;;;;0.00;0.00;;;;;;;12.82;52.01;100052.59;6243751;22;20712;-75
2024/03/24 09:49:12;;;;;;;0.00;0.00;;;;;;;13.48;49.52;100039.22;6244140;22;20092;-77
2024/03/24 09:51:39;;;;;;;0.00;0.00;;;;;;;13.00;49.25;100056.53;6247158;22;20007;-75
2024/03/24 09:54:11;;;;;;;0.00;0.00;;;;;;;12.27;51.83;100023.47;6216397;22;20070;-75
2024/03/24 09:56:37;;;;;;;0.00;0.00;;;;;;;12.38;53.24;100051.63;6221020;22;20431;-75
2024/03/24 09:59:04;;;;;;;0.00;0.00;;;;;;;13.09;50.79;100050.09;6269051;22;20053;-76
2024/03/24 10:01:37;;;;;;;0.00;0.00;;;;;;;12.88;51.03;100037.72;6217858;22;20034;-78
2024/03/24 10:04:08;;;;;;;0.00;0.00;;;;;;;12.62;51.57;100046.22;6272310;22;20376;-77
2024/03/24 10:06:34;;;;;;;0.00;0.00;;;;;;;12.73;52.85;100053.25;6239258;22;20007;-75
2024/03/24 10:09:05;;;;;;;0.00;0.00;;;;;;;12.33;52.59;100055.22;6271923;22;20015;-77
2024/03/24 10:11:34;;;;;;;0.00;0.00;;;;;;;12.05;52.76;100052.16;6240801;22;20019;-77
2024/03/24 10:14:01;;;;;;;0.00;0.00;;;;;;;11.70;53.26;100064.94;6271599;22;20030;-77
2024/03/24 10:16:26;;;;;;;0.00;0.00;;;;;;;12.65;52.86;100050.31;6239001;22;20000;-74
2024/03/24 10:18:54;;;;;;;0.00;0.00;;;;;;;12.89;51.21;100051.16;6270797;22;20004;-78
2024/03/24 10:21:20;;;;;;;0.00;0.00;;;;;;;12.66;51.09;100036.28;6267314;22;20055;-75
2024/03/24 10:23:46;;;;;;;0.00;0.00;;;;;;;14.40;46.29;100048.88;6242900;22;20027;-74
2024/03/24 10:26:24;;;;;;;0.00;0.00;;;;;;;15.68;45.18;100033.75;6218047;22;20007;-76
2024/03/24 10:28:51;;;;;;;0.00;0.00;;;;;;;17.12;40.42;100046.75;6240429;22;20011;-75
2024/03/24 10:31:17;;;;;;;0.00;0.00;;;;;;;19.34;37.96;100046.00;6272268;22;20011;-76
2024/03/24 10:33:44;;;;;;;0.00;0.00;;;;;;;21.78;35.14;100047.47;6269368;22;20000;-76
2024/03/24 10:36:10;;;;;;;0.00;0.00;;;;;;;24.53;29.33;100042.75;6244530;22;20010;-77
2024/03/24 10:38:37;;;;;;;0.00;0.00;;;;;;;23.07;29.58;100050.28;6190201;22;20007;-78
2024/03/24 10:41:06;;;;;;;0.00;0.00;;;;;;;20.50;33.15;100034.50;6242475;22;20031;-77
2024/03/24 10:43:32;;;;;;;0.00;0.00;;;;;;;22.20;32.13;100047.13;6217072;22;20694;-77
2024/03/24 10:46:01;;;;;;;0.00;0.00;;;;;;;25.65;27.49;100039.03;6216663;22;20338;-76
2024/03/24 10:48:33;;;;;;;0.00;0.00;;;;;;;27.37;25.08;100049.78;6267838;22;20058;-77
2024/03/24 10:51:02;;;;;;;0.00;0.00;;;;;;;25.38;26.74;100039.06;6215940;22;20013;-77
2024/03/24 10:53:37;;;;;;;0.00;0.00;;;;;;;27.54;24.83;100029.44;6270711;22;20365;-76
2024/03/24 10:56:04;;;;;;;0.00;0.00;;;;;;;27.23;23.45;100030.78;6267183;22;20086;-76
2024/03/24 10:58:31;;;;;;;0.00;0.00;;;;;;;26.79;24.75;100057.66;6245064;22;20418;-78
2024/03/24 11:00:57;;;;;;;0.00;0.00;;;;;;;22.90;28.39;100045.06;6271470;22;20068;-79
2024/03/24 11:03:23;;;;;;;0.00;0.00;;;;;;;19.08;32.86;100040.59;6243900;22;20012;-76
2024/03/24 11:05:53;;;;;;;0.00;0.00;;;;;;;17.30;36.57;100044.88;6244037;22;20015;-80
2024/03/24 11:08:20;;;;;;;0.00;0.00;;;;;;;16.28;39.38;100051.13;6243252;22;20020;-79
2024/03/24 11:10:56;;;;;;;0.00;0.00;;;;;;;15.19;41.85;100042.47;6270755;22;20125;-78
2024/03/24 11:13:24;;;;;;;0.00;0.00;;;;;;;14.57;43.61;100030.97;6267652;22;20003;-80
2024/03/24 11:15:52;;;;;;;0.00;0.00;;;;;;;17.06;40.81;100039.75;6244645;22;20012;-77
2024/03/24 11:18:20;;;;;;;0.08;0.08;;;;;;;17.83;38.82;100048.56;6215936;22;20057;-77
2024/03/24 11:20:52;;;;;;;0.00;0.00;;;;;;;18.19;37.87;100036.38;6271996;22;20455;-78
2024/03/24 11:23:41;;;;;;;0.00;0.00;;;;;;;20.60;36.31;100039.63;6237986;22;20004;-73
2024/03/24 11:26:13;;;;;;;0.00;0.00;;;;;;;22.31;31.36;100036.28;6240775;22;20087;-76
2024/03/24 11:28:43;;;;;;;0.00;0.00;;;;;;;20.27;34.09;100032.13;6264842;22;20007;-72
2024/03/24 11:31:21;;;;;;;0.00;0.00;;;;;;;18.62;36.80;100032.72;6215827;22;20007;-73
2024/03/24 11:33:58;;;;;;;0.00;0.00;;;;;;;17.42;40.05;100035.94;6266530;22;20003;-73
2024/03/24 11:36:25;;;;;;;0.00;0.00;;;;;;;16.77;40.29;100037.50;6240735;22;19999;-74
2024/03/24 11:38:53;;;;;;;0.00;0.00;;;;;;;16.47;41.70;100018.66;6238667;22;20092;-72
2024/03/24 11:41:18;;;;;;;0.00;0.00;;;;;;;16.50;41.01;100018.03;6270671;22;20011;-75
2024/03/24 11:43:52;;;;;;;0.00;0.00;;;;;;;15.25;42.78;100023.09;6212938;22;20012;-73